Terminal Aerodrome Forecast
Issued by NWS North Platte, NE

Home | Current Version | Previous Version | Graphics & Text | Print | Product List | Glossary On
Versions: 1 2 3 4 5 6 7 8 9 10 11 12 13 14 15 16
000
FTUS43 KLBF 202320
TAFVTN
TAF
KVTN 202320Z 2100/2124 11009KT P6SM FEW100
     FM210500 14010KT P6SM FEW250 WS015/17040KT
     FM210900 18008KT P6SM BKN250
     FM211500 26008KT P6SM SCT250
     FM211700 32010KT P6SM FEW250
     FM212000 35010KT P6SM FEW250=

USA.gov is the U.S. government's official web portal to all federal, state and local government web resources and services.